createdAt,value
2017-04-24T00:00:24.941Z,4.61
2017-04-24T00:01:24.904Z,4.62
2017-04-24T00:02:24.936Z,4.65
2017-04-24T00:03:25.167Z,4.57
2017-04-24T00:04:25.140Z,4.59
2017-04-24T00:05:25.115Z,4.56
2017-04-24T00:06:25.085Z,4.61
2017-04-24T00:07:25.058Z,4.62
2017-04-24T00:08:25.037Z,4.64
2017-04-24T00:09:25.012Z,4.65
2017-04-24T00:10:24.995Z,4.69
2017-04-24T00:11:24.957Z,4.65
2017-04-24T00:12:24.932Z,4.62
2017-04-24T00:13:24.911Z,4.64
2017-04-24T00:14:24.888Z,4.57
2017-04-24T00:15:24.861Z,4.56
2017-04-24T00:16:24.883Z,4.62
2017-04-24T00:17:24.807Z,4.65
2017-04-24T00:18:24.480Z,4.67
2017-04-24T00:19:24.754Z,4.53
2017-04-24T00:20:24.432Z,4.56
2017-04-24T00:21:24.709Z,4.54
2017-04-24T00:22:24.677Z,4.54
2017-04-24T00:23:24.657Z,4.47
2017-04-24T00:24:24.627Z,4.61
2017-04-24T00:25:24.604Z,4.5
2017-04-24T00:26:24.583Z,4.49
2017-04-24T00:27:24.559Z,4.57
2017-04-24T00:28:24.526Z,4.62
2017-04-24T00:29:24.503Z,4.57
2017-04-24T00:30:24.482Z,4.56
2017-04-24T00:31:24.451Z,4.56
2017-04-24T00:32:24.420Z,4.56
2017-04-24T00:33:24.396Z,4.53
2017-04-24T00:34:24.399Z,4.56
2017-04-24T00:35:24.040Z,4.62
2017-04-24T00:36:24.319Z,4.49
2017-04-24T00:37:24.343Z,4.49
2017-04-24T00:38:24.276Z,4.59
2017-04-24T00:39:24.245Z,4.53
2017-04-24T00:40:24.226Z,4.51
2017-04-24T00:41:24.193Z,4.51
2017-04-24T00:42:24.172Z,4.51
2017-04-24T00:43:24.192Z,4.51
2017-04-24T00:44:23.826Z,4.49
2017-04-24T00:45:24.089Z,4.51
2017-04-24T00:46:24.069Z,4.53
2017-04-24T00:47:24.040Z,4.59
2017-04-24T00:48:24.017Z,4.56
2017-04-24T00:49:24.001Z,4.49
2017-04-24T00:50:23.964Z,4.51
2017-04-24T00:51:23.950Z,4.53
2017-04-24T00:52:23.917Z,4.51
2017-04-24T00:53:23.887Z,4.38
2017-04-24T00:54:23.857Z,4.49
2017-04-24T00:55:23.845Z,4.51
2017-04-24T00:56:23.810Z,4.51
2017-04-24T00:57:23.783Z,4.39
2017-04-24T00:58:23.759Z,4.49
2017-04-24T00:59:23.739Z,4.5
2017-04-24T01:00:23.709Z,4.49
2017-04-24T01:01:23.680Z,4.36
2017-04-24T01:02:23.655Z,4.42
2017-04-24T01:03:23.646Z,4.44
2017-04-24T01:04:23.609Z,4.39
2017-04-24T01:05:23.581Z,4.42
2017-04-24T01:06:23.560Z,4.34
2017-04-24T01:07:23.529Z,4.36
2017-04-24T01:08:23.503Z,4.36
2017-04-24T01:09:23.483Z,4.32
2017-04-24T01:10:23.453Z,4.28
2017-04-24T01:11:23.430Z,4.36
2017-04-24T01:12:23.405Z,4.42
2017-04-24T01:13:23.374Z,4.39
2017-04-24T01:14:23.344Z,4.49
2017-04-24T01:15:23.325Z,4.44
2017-04-24T01:16:23.372Z,4.35
2017-04-24T01:17:23.276Z,4.39
2017-04-24T01:18:23.253Z,4.38
2017-04-24T01:19:23.223Z,4.36
2017-04-24T01:20:23.201Z,4.39
2017-04-24T01:21:23.168Z,4.46
2017-04-24T01:22:23.145Z,4.44
2017-04-24T01:23:23.114Z,4.34
2017-04-24T01:24:23.106Z,4.43
2017-04-24T01:25:23.066Z,4.35
2017-04-24T01:26:23.041Z,4.32
2017-04-24T01:27:23.015Z,4.32
2017-04-24T01:28:23.040Z,4.24
2017-04-24T01:29:22.969Z,4.24
2017-04-24T01:30:22.939Z,4.24
2017-04-24T01:31:23.214Z,4.17
2017-04-24T01:32:22.891Z,4.16
2017-04-24T01:33:22.869Z,4.21
2017-04-24T01:34:22.845Z,4.25
2017-04-24T01:35:22.810Z,4.11
2017-04-24T01:36:22.790Z,4.17
2017-04-24T01:37:22.452Z,4.11
2017-04-24T01:38:22.984Z,4.11
2017-04-24T01:39:22.708Z,4.13
2017-04-24T01:40:22.688Z,4.08
2017-04-24T01:41:22.650Z,4.11
2017-04-24T01:42:22.683Z,4.13
2017-04-24T01:43:22.606Z,4.16
2017-04-24T01:44:22.582Z,4.2
2017-04-24T01:45:22.557Z,4.16
2017-04-24T01:46:22.528Z,4.14
2017-04-24T01:47:22.205Z,4.07
2017-04-24T01:48:22.478Z,4.1
2017-04-24T01:49:22.478Z,4.02
2017-04-24T01:50:22.119Z,4
2017-04-24T01:51:22.398Z,4.04
2017-04-24T01:52:22.426Z,4.06
2017-04-24T01:53:22.348Z,4.06
2017-04-24T01:54:22.328Z,4.04
2017-04-24T01:55:22.296Z,4
2017-04-24T01:56:22.271Z,4
2017-04-24T01:57:22.248Z,4
2017-04-24T01:58:22.227Z,4.06
2017-04-24T01:59:22.414Z,3.98
2017-04-24T02:00:22.165Z,4.02
2017-04-24T02:01:22.139Z,4.04
2017-04-24T02:02:22.115Z,4.04
2017-04-24T02:03:22.097Z,3.89
2017-04-24T02:04:22.063Z,3.88
2017-04-24T02:05:22.043Z,3.88
2017-04-24T02:06:22.033Z,3.9
2017-04-24T02:07:21.985Z,3.86
2017-04-24T02:08:21.987Z,3.89
2017-04-24T02:09:21.944Z,3.93
2017-04-24T02:10:21.915Z,3.9
2017-04-24T02:11:21.881Z,4.06
2017-04-24T02:12:21.862Z,4.06
2017-04-24T02:13:21.841Z,4.04
2017-04-24T02:14:21.807Z,4.02
2017-04-24T02:15:21.778Z,3.99
2017-04-24T02:16:21.755Z,3.93
2017-04-24T02:17:21.735Z,3.86
2017-04-24T02:18:21.700Z,3.88
2017-04-24T02:19:21.678Z,3.95
2017-04-24T02:20:21.652Z,3.89
2017-04-24T02:21:21.625Z,3.89
2017-04-24T02:22:21.303Z,3.88
2017-04-24T02:23:21.573Z,3.92
2017-04-24T02:24:21.556Z,3.86
2017-04-24T02:25:21.524Z,3.86
2017-04-24T02:26:21.497Z,3.9
2017-04-24T02:27:21.467Z,3.92
2017-04-24T02:28:21.444Z,3.9
2017-04-24T02:29:21.419Z,3.93
2017-04-24T02:30:21.445Z,3.89
2017-04-24T02:31:21.387Z,3.86
2017-04-24T02:32:21.347Z,3.89
2017-04-24T02:33:21.316Z,3.86
2017-04-24T02:34:21.288Z,3.86
2017-04-24T02:35:21.261Z,3.82
2017-04-24T02:36:21.233Z,3.81
2017-04-24T02:37:21.206Z,3.78
2017-04-24T02:38:21.201Z,3.82
2017-04-24T02:39:21.166Z,3.75
2017-04-24T02:40:21.134Z,3.8
2017-04-24T02:41:21.109Z,3.82
2017-04-24T02:42:21.085Z,3.84
2017-04-24T02:43:21.060Z,3.8
2017-04-24T02:44:21.031Z,3.81
2017-04-24T02:45:21.000Z,3.82
2017-04-24T02:46:20.975Z,3.9
2017-04-24T02:47:21.006Z,3.82
2017-04-24T02:48:20.927Z,3.77
2017-04-24T02:49:20.950Z,3.74
2017-04-24T02:50:20.870Z,3.71
2017-04-24T02:51:20.841Z,3.67
2017-04-24T02:52:20.819Z,3.74
2017-04-24T02:53:20.844Z,3.72
2017-04-24T02:54:21.061Z,3.74
2017-04-24T02:55:20.739Z,3.72
2017-04-24T02:56:20.714Z,3.67
2017-04-24T02:57:20.689Z,3.7
2017-04-24T02:58:20.663Z,3.72
2017-04-24T02:59:20.641Z,3.72
2017-04-24T03:00:20.609Z,3.72
2017-04-24T03:01:20.598Z,3.74
2017-04-24T03:02:20.563Z,3.77
2017-04-24T03:03:20.538Z,3.72
2017-04-24T03:04:20.508Z,3.7
2017-04-24T03:05:20.485Z,3.74
2017-04-24T03:06:20.460Z,3.77
2017-04-24T03:07:20.439Z,3.75
2017-04-24T03:08:20.406Z,3.72
2017-04-24T03:09:20.384Z,3.82
2017-04-24T03:10:20.355Z,3.78
2017-04-24T03:11:20.331Z,3.8
2017-04-24T03:12:20.297Z,3.82
2017-04-24T03:13:20.300Z,3.77
2017-04-24T03:14:20.255Z,3.88
2017-04-24T03:15:20.219Z,3.82
2017-04-24T03:16:20.200Z,3.78
2017-04-24T03:17:20.172Z,3.78
2017-04-24T03:18:20.145Z,3.74
2017-04-24T03:19:20.127Z,3.8
2017-04-24T03:20:20.091Z,3.8
2017-04-24T03:21:20.078Z,3.75
2017-04-24T03:22:19.787Z,3.82
2017-04-24T03:23:20.018Z,3.84
2017-04-24T03:24:19.991Z,3.89
2017-04-24T03:25:19.959Z,3.86
2017-04-24T03:26:19.964Z,3.92
2017-04-24T03:27:19.959Z,3.9
2017-04-24T03:28:19.884Z,3.89
2017-04-24T03:29:19.868Z,3.89
2017-04-24T03:30:19.830Z,3.84
2017-04-24T03:31:19.809Z,3.92
2017-04-24T03:32:19.780Z,3.88
2017-04-24T03:33:19.459Z,3.92
2017-04-24T03:34:19.728Z,3.88
2017-04-24T03:35:19.704Z,3.86
2017-04-24T03:36:19.680Z,3.86
2017-04-24T03:37:19.662Z,3.9
2017-04-24T03:38:19.628Z,3.92
2017-04-24T03:39:19.603Z,3.9
2017-04-24T03:40:19.578Z,3.88
2017-04-24T03:41:19.550Z,3.93
2017-04-24T03:42:19.523Z,3.92
2017-04-24T03:43:19.509Z,3.84
2017-04-24T03:44:19.518Z,3.9
2017-04-24T03:45:19.441Z,3.9
2017-04-24T03:46:19.415Z,3.86
2017-04-24T03:47:19.390Z,3.89
2017-04-24T03:48:19.362Z,3.78
2017-04-24T03:49:19.340Z,3.77
2017-04-24T03:50:19.325Z,3.89
2017-04-24T03:51:19.284Z,3.78
2017-04-24T03:52:19.262Z,3.82
2017-04-24T03:53:19.235Z,3.75
2017-04-24T03:54:19.204Z,3.88
2017-04-24T03:55:19.181Z,3.71
2017-04-24T03:56:19.156Z,3.82
2017-04-24T03:57:19.130Z,3.8
2017-04-24T03:58:19.109Z,3.8
2017-04-24T03:59:19.080Z,3.75
2017-04-24T04:00:19.051Z,3.78
2017-04-24T04:01:19.029Z,3.8
2017-04-24T04:02:18.998Z,3.82
2017-04-24T04:03:18.980Z,3.77
2017-04-24T04:04:18.948Z,3.78
2017-04-24T04:05:18.924Z,3.75
2017-04-24T04:06:18.897Z,3.72
2017-04-24T04:07:18.863Z,3.84
2017-04-24T04:08:18.849Z,3.82
2017-04-24T04:09:18.816Z,3.92
2017-04-24T04:10:18.794Z,3.77
2017-04-24T04:11:18.761Z,3.84
2017-04-24T04:12:18.740Z,3.88
2017-04-24T04:13:18.709Z,3.89
2017-04-24T04:14:18.687Z,3.8
2017-04-24T04:15:18.668Z,3.92
2017-04-24T04:16:18.633Z,3.89
2017-04-24T04:17:18.616Z,3.78
2017-04-24T04:18:18.584Z,3.86
2017-04-24T04:19:18.551Z,3.8
2017-04-24T04:20:18.528Z,3.77
2017-04-24T04:21:18.502Z,3.82
2017-04-24T04:22:18.473Z,3.89
2017-04-24T04:23:18.469Z,3.81
2017-04-24T04:24:18.426Z,3.86
2017-04-24T04:25:18.408Z,3.89
2017-04-24T04:26:18.379Z,3.89
2017-04-24T04:27:18.348Z,3.95
2017-04-24T04:28:18.323Z,3.89
2017-04-24T04:29:18.299Z,3.88
2017-04-24T04:30:18.268Z,3.86
2017-04-24T04:31:18.241Z,3.96
2017-04-24T04:32:18.223Z,4.04
2017-04-24T04:33:18.196Z,3.9
2017-04-24T04:34:18.170Z,3.98
2017-04-24T04:35:18.142Z,4
2017-04-24T04:36:18.159Z,4.04
2017-04-24T04:37:18.091Z,4.16
2017-04-24T04:38:18.067Z,4.06
2017-04-24T04:39:18.042Z,4.17
2017-04-24T04:40:18.012Z,4.24
2017-04-24T04:41:17.987Z,4.35
2017-04-24T04:42:17.961Z,4.36
2017-04-24T04:43:17.944Z,4.54
2017-04-24T04:44:17.913Z,4.61
2017-04-24T04:45:17.889Z,4.53
2017-04-24T04:46:17.867Z,4.72
2017-04-24T04:47:17.836Z,4.8
2017-04-24T04:48:17.806Z,4.9
2017-04-24T04:49:17.508Z,5.12
2017-04-24T04:50:17.754Z,5.14
2017-04-24T04:51:17.736Z,5.24
2017-04-24T04:52:17.742Z,5.44
2017-04-24T04:53:17.682Z,5.58
2017-04-24T04:54:17.658Z,5.65
2017-04-24T04:55:17.629Z,5.77
2017-04-24T04:56:17.613Z,5.85
2017-04-24T04:57:17.585Z,5.92
2017-04-24T04:58:17.606Z,6.02
2017-04-24T04:59:17.533Z,6.03
2017-04-24T05:00:17.513Z,6.25
2017-04-24T05:01:17.485Z,6.39
2017-04-24T05:02:17.465Z,6.55
2017-04-24T05:03:17.440Z,6.6
2017-04-24T05:04:17.417Z,6.71
2017-04-24T05:05:17.397Z,6.75
2017-04-24T05:06:17.372Z,6.78
2017-04-24T05:07:17.346Z,6.89
2017-04-24T05:08:17.322Z,6.78
2017-04-24T05:09:17.349Z,6.89
2017-04-24T05:10:17.273Z,6.73
2017-04-24T05:11:17.244Z,6.65
2017-04-24T05:12:17.227Z,6.64
2017-04-24T05:13:17.200Z,6.63
2017-04-24T05:14:17.179Z,6.76
2017-04-24T05:15:17.157Z,6.81
2017-04-24T05:16:17.128Z,6.75
2017-04-24T05:17:17.109Z,6.86
2017-04-24T05:18:17.081Z,6.91
2017-04-24T05:19:17.113Z,6.91
2017-04-24T05:20:17.033Z,6.89
2017-04-24T05:21:17.014Z,6.91
2017-04-24T05:22:16.987Z,6.83
2017-04-24T05:23:16.972Z,6.76
2017-04-24T05:24:16.638Z,6.72
2017-04-24T05:25:16.650Z,6.6
2017-04-24T05:26:16.891Z,6.61
2017-04-24T05:27:16.870Z,6.45
2017-04-24T05:28:16.850Z,6.45
2017-04-24T05:29:16.819Z,6.33
2017-04-24T05:30:16.804Z,6.3
2017-04-24T05:31:16.770Z,6.35
2017-04-24T05:32:16.756Z,6.35
2017-04-24T05:33:16.729Z,6.33
2017-04-24T05:34:16.710Z,6.35
2017-04-24T05:35:16.679Z,6.28
2017-04-24T05:36:16.656Z,6.28
2017-04-24T05:37:16.637Z,6.35
2017-04-24T05:38:16.614Z,6.28
2017-04-24T05:39:16.586Z,6.24
2017-04-24T05:40:16.557Z,6.24
2017-04-24T05:41:16.540Z,6.28
2017-04-24T05:42:16.511Z,6.24
2017-04-24T05:43:16.490Z,6.24
2017-04-24T05:44:16.160Z,6.27
2017-04-24T05:45:16.448Z,6.2
2017-04-24T05:46:16.426Z,6.19
2017-04-24T05:47:16.396Z,6.25
2017-04-24T05:48:16.367Z,6.27
2017-04-24T05:49:16.355Z,6.28
2017-04-24T05:50:16.322Z,6.33
2017-04-24T05:51:16.303Z,6.38
2017-04-24T05:52:16.276Z,6.42
2017-04-24T05:53:15.951Z,6.5
2017-04-24T05:54:16.234Z,6.57
2017-04-24T05:55:16.205Z,6.58
2017-04-24T05:56:16.178Z,6.61
2017-04-24T05:57:16.158Z,6.69
2017-04-24T05:58:16.133Z,6.76
2017-04-24T05:59:15.810Z,6.93
2017-04-24T06:00:16.089Z,6.99
2017-04-24T06:01:16.059Z,7.04
2017-04-24T06:02:16.040Z,7.19
2017-04-24T06:03:16.027Z,7.3
2017-04-24T06:04:15.992Z,7.41
2017-04-24T06:05:15.961Z,7.42
2017-04-24T06:06:15.942Z,7.63
2017-04-24T06:07:15.922Z,7.63
2017-04-24T06:08:15.895Z,7.57
2017-04-24T06:09:15.874Z,7.73
2017-04-24T06:10:15.856Z,7.63
2017-04-24T06:11:15.535Z,7.7
2017-04-24T06:12:15.798Z,7.63
2017-04-24T06:13:15.490Z,7.66
2017-04-24T06:14:15.762Z,7.67
2017-04-24T06:15:15.432Z,7.66
2017-04-24T06:16:15.707Z,7.63
2017-04-24T06:17:15.689Z,7.58
2017-04-24T06:18:15.666Z,7.52
2017-04-24T06:19:15.642Z,7.48
2017-04-24T06:20:15.870Z,7.5
2017-04-24T06:21:15.593Z,7.42
2017-04-24T06:22:15.570Z,7.39
2017-04-24T06:23:15.553Z,7.29
2017-04-24T06:24:15.581Z,7.29
2017-04-24T06:25:15.504Z,7.24
2017-04-24T06:26:15.476Z,7.24
2017-04-24T06:27:15.458Z,7.26
2017-04-24T06:28:15.438Z,7.23
2017-04-24T06:29:15.410Z,7.29
2017-04-24T06:30:15.687Z,7.23
2017-04-24T06:31:15.356Z,7.27
2017-04-24T06:32:15.344Z,7.29
2017-04-24T06:33:15.011Z,7.3
2017-04-24T06:34:15.294Z,7.27
2017-04-24T06:35:15.269Z,7.42
2017-04-24T06:36:15.255Z,7.45
2017-04-24T06:37:15.221Z,7.48
2017-04-24T06:38:15.207Z,7.54
2017-04-24T06:39:14.869Z,7.62
2017-04-24T06:40:15.159Z,7.77
2017-04-24T06:41:15.125Z,7.7
2017-04-24T06:42:15.107Z,7.76
2017-04-24T06:43:15.079Z,7.77
2017-04-24T06:44:15.067Z,7.91
2017-04-24T06:45:15.032Z,7.88
2017-04-24T06:46:15.009Z,7.99
2017-04-24T06:47:15.000Z,7.94
2017-04-24T06:48:14.965Z,8.03
2017-04-24T06:49:14.946Z,8.14
2017-04-24T06:50:14.916Z,8.2
2017-04-24T06:51:14.893Z,8.06
2017-04-24T06:52:14.878Z,8.18
2017-04-24T06:53:14.853Z,8.22
2017-04-24T06:54:14.833Z,8.25
2017-04-24T06:55:14.814Z,8.29
2017-04-24T06:56:14.831Z,8.36
2017-04-24T06:57:14.761Z,8.45
2017-04-24T06:58:14.745Z,8.49
2017-04-24T06:59:14.715Z,8.5
2017-04-24T07:00:14.685Z,8.57
2017-04-24T07:01:14.668Z,8.52
2017-04-24T07:02:14.645Z,8.52
2017-04-24T07:03:14.624Z,8.71
2017-04-24T07:04:14.601Z,8.67
2017-04-24T07:05:14.576Z,8.65
2017-04-24T07:06:14.548Z,8.67
2017-04-24T07:07:14.531Z,8.7
2017-04-24T07:08:14.520Z,8.64
2017-04-24T07:09:14.539Z,8.86
2017-04-24T07:10:14.471Z,8.79
2017-04-24T07:11:14.436Z,8.79
2017-04-24T07:12:14.425Z,8.86
2017-04-24T07:13:14.401Z,8.96
2017-04-24T07:14:14.376Z,8.94
2017-04-24T07:15:14.350Z,8.91
2017-04-24T07:16:14.324Z,9
2017-04-24T07:17:14.303Z,9.03
2017-04-24T07:18:14.278Z,9.12
2017-04-24T07:19:14.256Z,9.12
2017-04-24T07:20:14.232Z,9.16
2017-04-24T07:21:14.208Z,9.16
2017-04-24T07:22:14.199Z,9.2
2017-04-24T07:23:14.168Z,9.27
2017-04-24T07:24:13.843Z,9.27
2017-04-24T07:25:14.126Z,9.3
2017-04-24T07:26:14.098Z,9.37
2017-04-24T07:27:14.080Z,9.44
2017-04-24T07:28:14.057Z,9.42
2017-04-24T07:29:14.073Z,9.49
2017-04-24T07:30:14.015Z,9.45
2017-04-24T07:31:14.043Z,9.45
2017-04-24T07:32:13.965Z,9.53
2017-04-24T07:33:13.636Z,9.53
2017-04-24T07:34:13.928Z,9.44
2017-04-24T07:35:13.895Z,9.55
2017-04-24T07:36:13.877Z,9.58
2017-04-24T07:37:13.905Z,9.65
2017-04-24T07:38:13.532Z,9.81
2017-04-24T07:39:13.812Z,9.89
2017-04-24T07:40:13.784Z,9.85
2017-04-24T07:41:13.763Z,9.96
2017-04-24T07:42:13.751Z,10.01
2017-04-24T07:43:13.719Z,10.09
2017-04-24T07:44:13.702Z,10.11
2017-04-24T07:45:13.677Z,10.09
2017-04-24T07:46:13.653Z,10.16
2017-04-24T07:47:13.629Z,10.25
2017-04-24T07:48:13.618Z,10.28
2017-04-24T07:49:13.588Z,10.39
2017-04-24T07:50:13.562Z,10.43
2017-04-24T07:51:13.544Z,10.36
2017-04-24T07:52:13.529Z,10.55
2017-04-24T07:53:13.516Z,10.6
2017-04-24T07:54:13.478Z,10.7
2017-04-24T07:55:13.450Z,10.83
2017-04-24T07:56:13.131Z,10.83
2017-04-24T07:57:13.409Z,11.13
2017-04-24T07:58:13.388Z,11.41
2017-04-24T07:59:13.380Z,11.48
2017-04-24T08:00:13.049Z,11.51
2017-04-24T08:01:13.323Z,11.48
2017-04-24T08:02:12.998Z,11.59
2017-04-24T08:03:13.293Z,11.57
2017-04-24T08:04:13.265Z,11.57
2017-04-24T08:05:13.247Z,11.46
2017-04-24T08:06:13.220Z,11.45
2017-04-24T08:07:13.197Z,11.44
2017-04-24T08:08:12.878Z,11.19
2017-04-24T08:09:13.154Z,11.26
2017-04-24T08:10:13.133Z,11.27
2017-04-24T08:11:13.117Z,11.36
2017-04-24T08:12:13.098Z,11.33
2017-04-24T08:13:13.075Z,11.56
2017-04-24T08:14:13.050Z,11.56
2017-04-24T08:15:13.031Z,11.54
2017-04-24T08:16:13.001Z,11.57
2017-04-24T08:17:12.985Z,11.72
2017-04-24T08:18:12.977Z,11.74
2017-04-24T08:19:12.942Z,11.67
2017-04-24T08:20:12.916Z,11.81
2017-04-24T08:21:12.912Z,11.72
2017-04-24T08:22:12.887Z,11.88
2017-04-24T08:23:12.863Z,12.05
2017-04-24T08:24:12.841Z,12.19
2017-04-24T08:25:12.814Z,12.4
2017-04-24T08:26:12.791Z,12.52
2017-04-24T08:27:12.775Z,12.66
2017-04-24T08:28:12.754Z,12.87
2017-04-24T08:29:12.746Z,12.88
2017-04-24T08:30:12.724Z,12.99
2017-04-24T08:31:12.693Z,13.1
2017-04-24T08:32:12.675Z,13.43
2017-04-24T08:33:12.854Z,13.76
2017-04-24T08:34:12.629Z,14.06
2017-04-24T08:35:12.611Z,14.26
2017-04-24T08:36:12.590Z,14.38
2017-04-24T08:37:12.580Z,14.78
2017-04-24T08:38:12.556Z,15.07
2017-04-24T08:39:12.535Z,15.44
2017-04-24T08:40:12.515Z,15.7
2017-04-24T08:41:12.200Z,15.78
2017-04-24T08:42:12.480Z,15.7
2017-04-24T08:43:12.509Z,15.93
2017-04-24T08:44:12.443Z,15.96
2017-04-24T08:45:12.424Z,16.23
2017-04-24T08:46:12.402Z,16.36
2017-04-24T08:47:12.385Z,16.34
2017-04-24T08:48:12.367Z,16.23
2017-04-24T08:49:12.348Z,15.93
2017-04-24T08:50:12.336Z,15.98
2017-04-24T08:51:12.013Z,16.41
2017-04-24T08:52:12.296Z,16.88
2017-04-24T08:53:12.290Z,17.28
2017-04-24T08:54:12.271Z,17.96
2017-04-24T08:55:12.242Z,18.31
2017-04-24T08:56:12.231Z,18.62
2017-04-24T08:57:12.222Z,18.74
2017-04-24T08:58:12.203Z,18.79
2017-04-24T08:59:12.238Z,18.76
2017-04-24T09:00:12.217Z,18.86
2017-04-24T09:01:12.147Z,19.1
2017-04-24T09:02:12.135Z,19.23
2017-04-24T09:03:12.126Z,19.31
2017-04-24T09:04:12.107Z,19.65
2017-04-24T09:05:12.087Z,19.94
2017-04-24T09:06:12.082Z,20.17
2017-04-24T09:07:12.065Z,20.5
2017-04-24T09:08:12.053Z,20.61
2017-04-24T09:09:12.044Z,20.73
2017-04-24T09:10:12.029Z,20.93
2017-04-24T09:11:11.719Z,21.26
2017-04-24T09:12:11.996Z,21.37
2017-04-24T09:13:11.679Z,21.26
2017-04-24T09:14:11.971Z,21.24
2017-04-24T09:15:12.011Z,21.26
2017-04-24T09:16:11.944Z,21.24
2017-04-24T09:17:11.937Z,21.11
2017-04-24T09:18:11.627Z,21.13
2017-04-24T09:19:11.913Z,21.34
2017-04-24T09:20:11.893Z,21.05
2017-04-24T09:21:11.888Z,20.9
2017-04-24T09:22:11.873Z,20.71
2017-04-24T09:23:11.856Z,20.68
2017-04-24T09:24:11.858Z,20.75
2017-04-24T09:25:11.841Z,20.76
2017-04-24T09:26:11.823Z,20.9
2017-04-24T09:27:11.875Z,20.87
2017-04-24T09:28:11.802Z,20.88
2017-04-24T09:29:11.490Z,20.9
2017-04-24T09:30:11.777Z,20.87
2017-04-24T09:31:11.761Z,20.88
2017-04-24T09:32:11.754Z,20.75
2017-04-24T09:33:11.733Z,20.61
2017-04-24T09:34:11.732Z,20.48
2017-04-24T09:35:11.731Z,20.41
2017-04-24T09:36:11.700Z,20.64
2017-04-24T09:37:11.694Z,20.72
2017-04-24T09:38:11.676Z,20.91
2017-04-24T09:39:11.669Z,21.11
2017-04-24T09:40:11.654Z,21.24
2017-04-24T09:41:11.644Z,21.31
2017-04-24T09:42:11.639Z,21.37
2017-04-24T09:43:11.621Z,21.42
2017-04-24T09:44:11.610Z,21.53
2017-04-24T09:45:11.607Z,21.58
2017-04-24T09:46:11.591Z,21.66
2017-04-24T09:47:11.631Z,21.66
2017-04-24T09:48:11.571Z,21.53
2017-04-24T09:49:11.558Z,21.56
2017-04-24T09:50:11.544Z,21.49
2017-04-24T09:51:11.531Z,21.63
2017-04-24T09:52:11.524Z,21.79
2017-04-24T09:53:11.510Z,21.81
2017-04-24T09:54:11.498Z,21.71
2017-04-24T09:55:11.491Z,21.77
2017-04-24T09:56:11.481Z,21.75
2017-04-24T09:57:11.164Z,21.59
2017-04-24T09:58:11.457Z,21.59
2017-04-24T09:59:11.448Z,21.71
2017-04-24T10:00:11.434Z,21.61
2017-04-24T10:01:11.426Z,21.66
2017-04-24T10:02:11.413Z,21.7
2017-04-24T10:03:11.400Z,21.59
2017-04-24T10:04:11.426Z,21.59
2017-04-24T10:05:11.382Z,21.43
2017-04-24T10:06:11.369Z,21.56
2017-04-24T10:07:11.054Z,21.53
2017-04-24T10:08:11.345Z,21.58
2017-04-24T10:09:11.328Z,21.56
2017-04-24T10:10:11.322Z,21.4
2017-04-24T10:11:11.316Z,21.28
2017-04-24T10:12:11.301Z,21.11
2017-04-24T10:13:11.322Z,21.16
2017-04-24T10:14:11.277Z,21.16
2017-04-24T10:15:11.330Z,21.26
2017-04-24T10:16:11.257Z,21.16
2017-04-24T10:17:11.244Z,21.3
2017-04-24T10:18:10.931Z,21.55
2017-04-24T10:19:11.235Z,21.73
2017-04-24T10:20:11.215Z,21.98
2017-04-24T10:21:11.215Z,22.2
2017-04-24T10:22:11.200Z,22.56
2017-04-24T10:23:11.186Z,22.72
2017-04-24T10:24:11.175Z,22.75
2017-04-24T10:25:11.158Z,22.91
2017-04-24T10:26:11.153Z,22.93
2017-04-24T10:27:11.169Z,22.7
2017-04-24T10:28:11.144Z,22.54
2017-04-24T10:29:11.115Z,22.17
2017-04-24T10:30:11.159Z,22.08
2017-04-24T10:31:11.105Z,21.89
2017-04-24T10:32:11.102Z,21.64
2017-04-24T10:33:11.093Z,21.37
2017-04-24T10:34:11.074Z,21.06
2017-04-24T10:35:11.056Z,20.72
2017-04-24T10:36:11.059Z,20.4
2017-04-24T10:37:11.038Z,20
2017-04-24T10:38:11.028Z,19.65
2017-04-24T10:39:11.030Z,19.45
2017-04-24T10:40:10.703Z,19.27
2017-04-24T10:41:10.993Z,19.12
2017-04-24T10:42:10.980Z,18.72
2017-04-24T10:43:10.962Z,18.59
2017-04-24T10:44:10.953Z,18.66
2017-04-24T10:45:10.946Z,18.64
2017-04-24T10:46:11.177Z,18.62
2017-04-24T10:47:10.911Z,18.62
2017-04-24T10:48:10.590Z,18.62
2017-04-24T10:49:10.881Z,18.64
2017-04-24T10:50:10.867Z,18.57
2017-04-24T10:51:10.547Z,18.51
2017-04-24T10:52:10.835Z,18.36
2017-04-24T10:53:10.817Z,18.29
2017-04-24T10:54:10.807Z,18.19
2017-04-24T10:55:10.839Z,18.13
2017-04-24T10:56:10.780Z,18.09
2017-04-24T10:57:10.759Z,18.11
2017-04-24T10:58:10.735Z,18.05
2017-04-24T10:59:10.422Z,17.89
2017-04-24T11:00:10.709Z,17.96
2017-04-24T11:01:10.689Z,17.83
2017-04-24T11:02:10.370Z,17.65
2017-04-24T11:03:10.666Z,17.58
2017-04-24T11:04:10.648Z,17.43
2017-04-24T11:05:10.622Z,17.45
2017-04-24T11:06:10.300Z,17.38
2017-04-24T11:07:10.583Z,17.28
2017-04-24T11:08:10.570Z,17.24
2017-04-24T11:09:10.575Z,17.21
2017-04-24T11:10:10.240Z,17.2
2017-04-24T11:11:10.515Z,17.27
2017-04-24T11:12:10.505Z,17.14
2017-04-24T11:13:10.685Z,17.07
2017-04-24T11:14:10.466Z,17.03
2017-04-24T11:15:10.446Z,16.96
2017-04-24T11:16:10.428Z,16.81
2017-04-24T11:17:10.410Z,16.85
2017-04-24T11:18:10.405Z,16.87
2017-04-24T11:19:10.590Z,16.9
2017-04-24T11:20:10.359Z,16.85
2017-04-24T11:21:10.345Z,16.95
2017-04-24T11:22:10.329Z,16.88
2017-04-24T11:23:10.326Z,16.91
2017-04-24T11:24:10.285Z,16.92
2017-04-24T11:25:10.276Z,17.02
2017-04-24T11:26:10.258Z,16.92
2017-04-24T11:27:10.227Z,16.9
2017-04-24T11:28:10.208Z,16.9
2017-04-24T11:29:10.205Z,16.81
2017-04-24T11:30:10.175Z,16.75
2017-04-24T11:31:10.154Z,16.66
2017-04-24T11:32:10.137Z,16.67
2017-04-24T11:33:10.128Z,16.65
2017-04-24T11:34:10.104Z,16.63
2017-04-24T11:35:10.089Z,16.45
2017-04-24T11:36:10.067Z,16.44
2017-04-24T11:37:10.056Z,16.32
2017-04-24T11:38:10.042Z,16.25
2017-04-24T11:39:10.014Z,16.17
2017-04-24T11:40:09.988Z,16.22
2017-04-24T11:41:09.976Z,16.23
2017-04-24T11:42:09.701Z,16.26
2017-04-24T11:43:09.937Z,16.25
2017-04-24T11:44:10.217Z,16.27
2017-04-24T11:45:09.893Z,16.25
2017-04-24T11:46:09.879Z,16.36
2017-04-24T11:47:09.555Z,16.41
2017-04-24T11:48:09.535Z,16.41
2017-04-24T11:49:09.613Z,16.63
2017-04-24T11:50:09.524Z,16.66
2017-04-24T11:51:09.773Z,16.67
2017-04-24T11:52:09.459Z,16.63
2017-04-24T11:53:09.743Z,16.57
2017-04-24T11:54:09.758Z,16.48
2017-04-24T11:55:09.720Z,16.44
2017-04-24T11:56:09.687Z,16.44
2017-04-24T11:57:09.376Z,16.36
2017-04-24T11:58:09.696Z,16.3
2017-04-24T11:59:09.630Z,16.45
2017-04-24T12:00:09.617Z,16.62
2017-04-24T12:01:09.289Z,16.63
2017-04-24T12:02:09.571Z,16.72
2017-04-24T12:03:09.565Z,16.69
2017-04-24T12:04:09.530Z,16.67
2017-04-24T12:05:09.517Z,16.72
2017-04-24T12:06:09.202Z,16.75
2017-04-24T12:07:09.481Z,16.92
2017-04-24T12:08:09.463Z,16.88
2017-04-24T12:09:09.444Z,16.75
2017-04-24T12:10:09.126Z,16.81
2017-04-24T12:11:09.266Z,16.9
2017-04-24T12:12:09.083Z,16.88
2017-04-24T12:13:09.361Z,16.95
2017-04-24T12:14:09.348Z,16.87
2017-04-24T12:15:09.039Z,16.91
2017-04-24T12:16:09.312Z,17.02
2017-04-24T12:17:09.292Z,16.98
2017-04-24T12:18:09.269Z,17.14
2017-04-24T12:19:09.253Z,17.28
2017-04-24T12:20:09.235Z,17.28
2017-04-24T12:21:09.200Z,17.36
2017-04-24T12:22:08.894Z,17.43
2017-04-24T12:23:09.171Z,17.43
2017-04-24T12:24:09.150Z,17.36
2017-04-24T12:25:09.133Z,17.36
2017-04-24T12:26:09.109Z,17.39
2017-04-24T12:27:09.118Z,17.45
2017-04-24T12:28:09.082Z,17.42
2017-04-24T12:29:09.065Z,17.4
2017-04-24T12:30:09.041Z,17.42
2017-04-24T12:31:09.029Z,17.42
2017-04-24T12:32:09.015Z,17.25
2017-04-24T12:33:08.979Z,17.33
2017-04-24T12:34:08.964Z,17.35
2017-04-24T12:35:08.641Z,17.3
2017-04-24T12:36:08.919Z,17.35
2017-04-24T12:37:08.603Z,17.35
2017-04-24T12:38:09.158Z,17.3
2017-04-24T12:39:08.863Z,17.38
2017-04-24T12:40:08.845Z,17.24
2017-04-24T12:41:08.838Z,17.28
2017-04-24T12:42:08.508Z,17.27
2017-04-24T12:43:08.805Z,17.3
2017-04-24T12:44:08.474Z,17.38
2017-04-24T12:45:08.750Z,17.39
2017-04-24T12:46:08.751Z,17.36
2017-04-24T12:47:08.718Z,17.36
2017-04-24T12:48:08.696Z,17.3
2017-04-24T12:49:08.677Z,17.17
2017-04-24T12:50:08.662Z,17.17
2017-04-24T12:51:08.631Z,17.12
2017-04-24T12:52:08.317Z,16.98
2017-04-24T12:53:07.999Z,17.05
2017-04-24T12:54:08.590Z,16.96
2017-04-24T12:55:08.568Z,16.88
2017-04-24T12:56:08.539Z,16.91
2017-04-24T12:57:08.536Z,16.82
2017-04-24T12:58:08.560Z,16.88
2017-04-24T12:59:08.484Z,16.9
2017-04-24T13:00:08.471Z,16.98
2017-04-24T13:01:08.447Z,17
2017-04-24T13:02:08.423Z,17.17
2017-04-24T13:03:08.407Z,17.1
2017-04-24T13:04:08.388Z,17.12
2017-04-24T13:05:08.370Z,17.12
2017-04-24T13:06:08.059Z,17.15
2017-04-24T13:07:08.334Z,17.1
2017-04-24T13:08:08.308Z,17.17
2017-04-24T13:09:08.294Z,17.17
2017-04-24T13:10:08.273Z,17.12